Station Historical Data
Daily Summary for June 24, 2017 Units:  Both    English   Metric
« Previous Day
Next Day »
Daily Weekly Monthly Yearly Custom
  High: Low: Average:
Temperature: 75.2 °F /  24 °C 62.1 °F /  16.7 °C 69.3 °F /  20.7 °C
Dew Point: 66.7 °F /  19.3 °C 53.2 °F /  11.8 °C 60 °F /  15.6 °C
Humidity: 93% 54% 73%
Wind Speed: 15.0mph /  24.1km/h - 4.8mph /  7.7km/h
Wind Gust: 23.0mph /  37km/h - -
Wind- - WSW
Pressure: 29.92 in /  1013.1 hPa 29.59 in /  1001.9 hPa -
Precipitation: 0.00 in /  0 mm    
Historical Graphs
 
 
Tabular Data for June 24, 2017
Time Temperature Dew Point Pressure Wind Wind Speed Wind Gust Humidity Rainfall Rate (Hourly)
00:04 68.8 °F /  20.4 °C 66.7 °F /  19.3 °C 29.59in /  1001.9hPa WSW 3.0mph /  4.8km/h 6.0mph /  9.7km/h 93% 0.00in /  0mm
00:09 68.8 °F /  20.4 °C 66.7 °F /  19.3 °C 29.59in /  1001.9hPa WSW 3.0mph /  4.8km/h 6.0mph /  9.7km/h 93% 0.00in /  0mm
00:14 68.8 °F /  20.4 °C 66.7 °F /  19.3 °C 29.59in /  1001.9hPa WSW 3.0mph /  4.8km/h 5.0mph /  8km/h 93% 0.00in /  0mm
00:19 68.8 °F /  20.4 °C 66.7 °F /  19.3 °C 29.59in /  1001.9hPa West 4.0mph /  6.4km/h 4.0mph /  6.4km/h 93% 0.00in /  0mm
00:24 68.8 °F /  20.4 °C 66.7 °F /  19.3 °C 29.59in /  1001.9hPa West 1.0mph /  1.6km/h 4.0mph /  6.4km/h 93% 0.00in /  0mm
00:29 68.8 °F /  20.4 °C 66.7 °F /  19.3 °C 29.59in /  1001.9hPa West 2.0mph /  3.2km/h 4.0mph /  6.4km/h 93% 0.00in /  0mm
00:34 68.8 °F /  20.4 °C 66.7 °F /  19.3 °C 29.59in /  1001.9hPa West 2.0mph /  3.2km/h 4.0mph /  6.4km/h 93% 0.00in /  0mm
00:39 68.8 °F /  20.4 °C 66.7 °F /  19.3 °C 29.59in /  1001.9hPa WNW 2.0mph /  3.2km/h 5.0mph /  8km/h 93% 0.00in /  0mm
00:44 68.8 °F /  20.4 °C 66.7 °F /  19.3 °C 29.59in /  1001.9hPa NW 2.0mph /  3.2km/h 4.0mph /  6.4km/h 93% 0.00in /  0mm
00:49 68.7 °F /  20.4 °C 66.6 °F /  19.2 °C 29.59in /  1001.9hPa NW 2.0mph /  3.2km/h 3.0mph /  4.8km/h 93% 0.00in /  0mm
00:54 68.6 °F /  20.3 °C 66.5 °F /  19.2 °C 29.59in /  1001.9hPa WNW 3.0mph /  4.8km/h 3.0mph /  4.8km/h 93% 0.00in /  0mm
00:59 68.6 °F /  20.3 °C 66.5 °F /  19.2 °C 29.59in /  1001.9hPa WNW 1.0mph /  1.6km/h 4.0mph /  6.4km/h 93% 0.00in /  0mm
01:04 68.6 °F /  20.3 °C 66.5 °F /  19.2 °C 29.59in /  1001.9hPa WNW 2.0mph /  3.2km/h 4.0mph /  6.4km/h 93% 0.00in /  0mm
01:09 68.6 °F /  20.3 °C 66.2 °F /  19 °C 29.59in /  1001.9hPa WNW 2.0mph /  3.2km/h 4.0mph /  6.4km/h 92% 0.00in /  0mm
01:14 68.7 °F /  20.4 °C 66.3 °F /  19.1 °C 29.59in /  1001.9hPa West 1.0mph /  1.6km/h 4.0mph /  6.4km/h 92% 0.00in /  0mm
01:19 68.7 °F /  20.4 °C 66.3 °F /  19.1 °C 29.60in /  1002.3hPa WNW 2.0mph /  3.2km/h 3.0mph /  4.8km/h 92% 0.00in /  0mm
01:24 68.7 °F /  20.4 °C 66.3 °F /  19.1 °C 29.60in /  1002.3hPa WNW 2.0mph /  3.2km/h 4.0mph /  6.4km/h 92% 0.00in /  0mm
01:29 68.6 °F /  20.3 °C 66.2 °F /  19 °C 29.60in /  1002.3hPa West 3.0mph /  4.8km/h 4.0mph /  6.4km/h 92% 0.00in /  0mm
01:34 68.6 °F /  20.3 °C 66.2 °F /  19 °C 29.60in /  1002.3hPa West 2.0mph /  3.2km/h 4.0mph /  6.4km/h 92% 0.00in /  0mm
01:39 68.6 °F /  20.3 °C 66.2 °F /  19 °C 29.61in /  1002.6hPa West 2.0mph /  3.2km/h 4.0mph /  6.4km/h 92% 0.00in /  0mm
01:44 68.5 °F /  20.3 °C 65.8 °F /  18.8 °C 29.61in /  1002.6hPa West 2.0mph /  3.2km/h 5.0mph /  8km/h 91% 0.00in /  0mm
01:49 68.4 °F /  20.2 °C 65.7 °F /  18.7 °C 29.61in /  1002.6hPa WNW 3.0mph /  4.8km/h 6.0mph /  9.7km/h 91% 0.00in /  0mm
01:54 68.2 °F /  20.1 °C 65.2 °F /  18.4 °C 29.61in /  1002.6hPa WNW 2.0mph /  3.2km/h 7.0mph /  11.3km/h 90% 0.00in /  0mm
01:59 68.2 °F /  20.1 °C 65.2 °F /  18.4 °C 29.61in /  1002.6hPa NW 2.0mph /  3.2km/h 4.0mph /  6.4km/h 90% 0.00in /  0mm
02:04 68.1 °F /  20.1 °C 64.7 °F /  18.2 °C 29.60in /  1002.3hPa WNW 3.0mph /  4.8km/h 5.0mph /  8km/h 89% 0.00in /  0mm
02:09 68.1 °F /  20.1 °C 64.4 °F /  18 °C 29.60in /  1002.3hPa Calm   4.0mph /  6.4km/h 88% 0.00in /  0mm
02:14 68.0 °F /  20 °C 64.0 °F /  17.8 °C 29.60in /  1002.3hPa NW 2.0mph /  3.2km/h 7.0mph /  11.3km/h 87% 0.00in /  0mm
02:19 68.0 °F /  20 °C 63.7 °F /  17.6 °C 29.61in /  1002.6hPa WNW 3.0mph /  4.8km/h 6.0mph /  9.7km/h 86% 0.00in /  0mm
02:24 68.0 °F /  20 °C 63.3 °F /  17.4 °C 29.61in /  1002.6hPa WNW 2.0mph /  3.2km/h 5.0mph /  8km/h 85% 0.00in /  0mm
02:29 68.0 °F /  20 °C 63.3 °F /  17.4 °C 29.61in /  1002.6hPa WNW 2.0mph /  3.2km/h 5.0mph /  8km/h 85% 0.00in /  0mm
02:34 68.0 °F /  20 °C 63.0 °F /  17.2 °C 29.62in /  1002.9hPa WNW 3.0mph /  4.8km/h 6.0mph /  9.7km/h 84% 0.00in /  0mm
02:39 67.9 °F /  19.9 °C 62.5 °F /  16.9 °C 29.61in /  1002.6hPa WNW 3.0mph /  4.8km/h 7.0mph /  11.3km/h 83% 0.00in /  0mm
02:44 67.9 °F /  19.9 °C 62.5 °F /  16.9 °C 29.62in /  1002.9hPa WNW 4.0mph /  6.4km/h 7.0mph /  11.3km/h 83% 0.00in /  0mm
02:49 67.9 °F /  19.9 °C 62.5 °F /  16.9 °C 29.62in /  1002.9hPa West 3.0mph /  4.8km/h 7.0mph /  11.3km/h 83% 0.00in /  0mm
02:54 67.9 °F /  19.9 °C 62.5 °F /  16.9 °C 29.62in /  1002.9hPa WNW 1.0mph /  1.6km/h 7.0mph /  11.3km/h 83% 0.00in /  0mm
02:59 67.9 °F /  19.9 °C 62.2 °F /  16.8 °C 29.62in /  1002.9hPa WNW 3.0mph /  4.8km/h 7.0mph /  11.3km/h 82% 0.00in /  0mm
03:04 67.9 °F /  19.9 °C 62.2 °F /  16.8 °C 29.62in /  1002.9hPa WNW 3.0mph /  4.8km/h 5.0mph /  8km/h 82% 0.00in /  0mm
03:09 67.7 °F /  19.8 °C 62.0 °F /  16.7 °C 29.62in /  1002.9hPa WNW 3.0mph /  4.8km/h 7.0mph /  11.3km/h 82% 0.00in /  0mm
03:14 67.7 °F /  19.8 °C 62.0 °F /  16.7 °C 29.62in /  1002.9hPa West 4.0mph /  6.4km/h 7.0mph /  11.3km/h 82% 0.00in /  0mm
03:19 67.6 °F /  19.8 °C 61.9 °F /  16.6 °C 29.61in /  1002.6hPa WNW 2.0mph /  3.2km/h 7.0mph /  11.3km/h 82% 0.00in /  0mm
03:24 67.5 °F /  19.7 °C 61.5 °F /  16.4 °C 29.61in /  1002.6hPa NW 2.0mph /  3.2km/h 7.0mph /  11.3km/h 81% 0.00in /  0mm
03:29 67.4 °F /  19.7 °C 61.4 °F /  16.3 °C 29.62in /  1002.9hPa WNW 3.0mph /  4.8km/h 7.0mph /  11.3km/h 81% 0.00in /  0mm
03:34 67.3 °F /  19.6 °C 60.9 °F /  16.1 °C 29.62in /  1002.9hPa WNW 3.0mph /  4.8km/h 6.0mph /  9.7km/h 80% 0.00in /  0mm
03:39 67.3 °F /  19.6 °C 60.9 °F /  16.1 °C 29.62in /  1002.9hPa West 5.0mph /  8km/h 5.0mph /  8km/h 80% 0.00in /  0mm
03:44 67.4 °F /  19.7 °C 60.7 °F /  15.9 °C 29.62in /  1002.9hPa West 2.0mph /  3.2km/h 5.0mph /  8km/h 79% 0.00in /  0mm
03:49 67.3 °F /  19.6 °C 60.6 °F /  15.9 °C 29.62in /  1002.9hPa WNW 3.0mph /  4.8km/h 3.0mph /  4.8km/h 79% 0.00in /  0mm
03:54 67.1 °F /  19.5 °C 60.4 °F /  15.8 °C 29.62in /  1002.9hPa WNW 2.0mph /  3.2km/h 4.0mph /  6.4km/h 79% 0.00in /  0mm
03:59 67.1 °F /  19.5 °C 60.4 °F /  15.8 °C 29.62in /  1002.9hPa WNW 3.0mph /  4.8km/h 5.0mph /  8km/h 79% 0.00in /  0mm
04:04 67.0 °F /  19.4 °C 60.3 °F /  15.7 °C 29.63in /  1003.3hPa West 2.0mph /  3.2km/h 5.0mph /  8km/h 79% 0.00in /  0mm
04:09 66.9 °F /  19.4 °C 60.2 °F /  15.7 °C 29.63in /  1003.3hPa West 2.0mph /  3.2km/h 5.0mph /  8km/h 79% 0.00in /  0mm
04:14 66.9 °F /  19.4 °C 60.2 °F /  15.7 °C 29.63in /  1003.3hPa WNW 1.0mph /  1.6km/h 4.0mph /  6.4km/h 79% 0.00in /  0mm
04:19 66.7 °F /  19.3 °C 60.0 °F /  15.6 °C 29.63in /  1003.3hPa WNW 1.0mph /  1.6km/h 3.0mph /  4.8km/h 79% 0.00in /  0mm
04:24 66.6 °F /  19.2 °C 59.5 °F /  15.3 °C 29.63in /  1003.3hPa WNW 2.0mph /  3.2km/h 4.0mph /  6.4km/h 78% 0.00in /  0mm
04:29 66.5 °F /  19.2 °C 59.4 °F /  15.2 °C 29.63in /  1003.3hPa NW 2.0mph /  3.2km/h 5.0mph /  8km/h 78% 0.00in /  0mm
04:34 66.3 °F /  19.1 °C 58.9 °F /  14.9 °C 29.63in /  1003.3hPa WNW 2.0mph /  3.2km/h 5.0mph /  8km/h 77% 0.00in /  0mm
04:39 66.2 °F /  19 °C 58.4 °F /  14.7 °C 29.64in /  1003.6hPa WNW 2.0mph /  3.2km/h 5.0mph /  8km/h 76% 0.00in /  0mm
04:44 66.1 °F /  18.9 °C 57.9 °F /  14.4 °C 29.64in /  1003.6hPa NW 1.0mph /  1.6km/h 5.0mph /  8km/h 75% 0.00in /  0mm
04:49 65.8 °F /  18.8 °C 57.7 °F /  14.3 °C 29.64in /  1003.6hPa NW 4.0mph /  6.4km/h 5.0mph /  8km/h 75% 0.00in /  0mm
04:54 65.5 °F /  18.6 °C 57.4 °F /  14.1 °C 29.64in /  1003.6hPa WNW 3.0mph /  4.8km/h 5.0mph /  8km/h 75% 0.00in /  0mm
04:59 65.3 °F /  18.5 °C 57.2 °F /  14 °C 29.65in /  1003.9hPa WNW 2.0mph /  3.2km/h 5.0mph /  8km/h 75% 0.00in /  0mm
05:04 65.0 °F /  18.3 °C 56.9 °F /  13.8 °C 29.65in /  1003.9hPa WNW 2.0mph /  3.2km/h 4.0mph /  6.4km/h 75% 0.00in /  0mm
05:09 64.8 °F /  18.2 °C 56.7 °F /  13.7 °C 29.65in /  1003.9hPa NW 1.0mph /  1.6km/h 6.0mph /  9.7km/h 75% 0.00in /  0mm
05:14 64.7 °F /  18.2 °C 56.6 °F /  13.7 °C 29.66in /  1004.3hPa WNW 3.0mph /  4.8km/h 6.0mph /  9.7km/h 75% 0.00in /  0mm
05:19 64.5 °F /  18.1 °C 56.4 °F /  13.6 °C 29.66in /  1004.3hPa WNW 2.0mph /  3.2km/h 4.0mph /  6.4km/h 75% 0.00in /  0mm
05:24 64.5 °F /  18.1 °C 56.4 °F /  13.6 °C 29.66in /  1004.3hPa West 2.0mph /  3.2km/h 4.0mph /  6.4km/h 75% 0.00in /  0mm
05:29 64.3 °F /  17.9 °C 56.2 °F /  13.4 °C 29.66in /  1004.3hPa West 2.0mph /  3.2km/h 3.0mph /  4.8km/h 75% 0.00in /  0mm
05:34 64.0 °F /  17.8 °C 55.9 °F /  13.3 °C 29.66in /  1004.3hPa Calm   2.0mph /  3.2km/h 75% 0.00in /  0mm
05:39 63.8 °F /  17.7 °C 56.1 °F /  13.4 °C 29.66in /  1004.3hPa Calm     76% 0.00in /  0mm
05:44 63.7 °F /  17.6 °C 56.0 °F /  13.3 °C 29.66in /  1004.3hPa Calm     76% 0.00in /  0mm
05:49 63.3 °F /  17.4 °C 56.0 °F /  13.3 °C 29.67in /  1004.6hPa Calm     77% 0.00in /  0mm
05:54 63.1 °F /  17.3 °C 56.1 °F /  13.4 °C 29.67in /  1004.6hPa Calm   2.0mph /  3.2km/h 78% 0.00in /  0mm
05:59 62.6 °F /  17 °C 56.0 °F /  13.3 °C 29.68in /  1005hPa Calm   2.0mph /  3.2km/h 79% 0.00in /  0mm
06:04 62.2 °F /  16.8 °C 56.0 °F /  13.3 °C 29.68in /  1005hPa Calm     80% 0.00in /  0mm
06:09 62.1 °F /  16.7 °C 56.2 °F /  13.4 °C 29.68in /  1005hPa Calm     81% 0.00in /  0mm
06:14 62.4 °F /  16.9 °C 56.5 °F /  13.6 °C 29.68in /  1005hPa Calm     81% 0.00in /  0mm
06:19 62.9 °F /  17.2 °C 56.6 °F /  13.7 °C 29.69in /  1005.3hPa Calm     80% 0.00in /  0mm
06:24 63.0 °F /  17.2 °C 56.7 °F /  13.7 °C 29.69in /  1005.3hPa Calm     80% 0.00in /  0mm
06:29 63.1 °F /  17.3 °C 56.8 °F /  13.8 °C 29.69in /  1005.3hPa Calm     80% 0.00in /  0mm
06:34 63.0 °F /  17.2 °C 56.7 °F /  13.7 °C 29.69in /  1005.3hPa Calm     80% 0.00in /  0mm
06:39 63.2 °F /  17.3 °C 57.3 °F /  14.1 °C 29.70in /  1005.6hPa Calm     81% 0.00in /  0mm
06:44 63.6 °F /  17.6 °C 57.3 °F /  14.1 °C 29.69in /  1005.3hPa Calm     80% 0.00in /  0mm
06:49 63.9 °F /  17.7 °C 57.6 °F /  14.2 °C 29.70in /  1005.6hPa Calm   4.0mph /  6.4km/h 80% 0.00in /  0mm
06:54 64.3 °F /  17.9 °C 57.6 °F /  14.2 °C 29.70in /  1005.6hPa WSW 1.0mph /  1.6km/h 2.0mph /  3.2km/h 79% 0.00in /  0mm
06:59 65.0 °F /  18.3 °C 57.6 °F /  14.2 °C 29.70in /  1005.6hPa WSW 1.0mph /  1.6km/h 4.0mph /  6.4km/h 77% 0.00in /  0mm
07:04 65.3 °F /  18.5 °C 57.5 °F /  14.2 °C 29.70in /  1005.6hPa WSW 2.0mph /  3.2km/h 4.0mph /  6.4km/h 76% 0.00in /  0mm
07:09 65.6 °F /  18.7 °C 57.8 °F /  14.3 °C 29.70in /  1005.6hPa West 2.0mph /  3.2km/h 4.0mph /  6.4km/h 76% 0.00in /  0mm
07:14 65.9 °F /  18.8 °C 57.7 °F /  14.3 °C 29.70in /  1005.6hPa WSW 3.0mph /  4.8km/h 4.0mph /  6.4km/h 75% 0.00in /  0mm
07:19 66.3 °F /  19.1 °C 57.8 °F /  14.3 °C 29.70in /  1005.6hPa WNW 2.0mph /  3.2km/h 6.0mph /  9.7km/h 74% 0.00in /  0mm
07:24 66.6 °F /  19.2 °C 57.7 °F /  14.3 °C 29.71in /  1006hPa West 6.0mph /  9.7km/h 7.0mph /  11.3km/h 73% 0.00in /  0mm
07:29 67.0 °F /  19.4 °C 57.7 °F /  14.3 °C 29.71in /  1006hPa WNW 3.0mph /  4.8km/h 7.0mph /  11.3km/h 72% 0.00in /  0mm
07:34 67.2 °F /  19.6 °C 57.5 °F /  14.2 °C 29.71in /  1006hPa WNW 4.0mph /  6.4km/h 7.0mph /  11.3km/h 71% 0.00in /  0mm
07:39 67.5 °F /  19.7 °C 57.4 °F /  14.1 °C 29.71in /  1006hPa West 3.0mph /  4.8km/h 7.0mph /  11.3km/h 70% 0.00in /  0mm
07:44 67.9 °F /  19.9 °C 57.4 °F /  14.1 °C 29.71in /  1006hPa West 3.0mph /  4.8km/h 6.0mph /  9.7km/h 69% 0.00in /  0mm
07:49 68.3 °F /  20.2 °C 57.7 °F /  14.3 °C 29.71in /  1006hPa West 3.0mph /  4.8km/h 8.0mph /  12.9km/h 69% 0.00in /  0mm
07:54 68.6 °F /  20.3 °C 57.2 °F /  14 °C 29.72in /  1006.3hPa WNW 2.0mph /  3.2km/h 11.0mph /  17.7km/h 67% 0.00in /  0mm
07:59 68.7 °F /  20.4 °C 56.9 °F /  13.8 °C 29.72in /  1006.3hPa West 2.0mph /  3.2km/h 9.0mph /  14.5km/h 66% 0.00in /  0mm
08:04 69.0 °F /  20.6 °C 56.7 °F /  13.7 °C 29.72in /  1006.3hPa West 5.0mph /  8km/h 7.0mph /  11.3km/h 65% 0.00in /  0mm
08:09 69.1 °F /  20.6 °C 56.8 °F /  13.8 °C 29.72in /  1006.3hPa WNW 4.0mph /  6.4km/h 8.0mph /  12.9km/h 65% 0.00in /  0mm
08:14 69.5 °F /  20.8 °C 57.2 °F /  14 °C 29.72in /  1006.3hPa WNW 3.0mph /  4.8km/h 8.0mph /  12.9km/h 65% 0.00in /  0mm
08:19 69.9 °F /  21.1 °C 57.2 °F /  14 °C 29.72in /  1006.3hPa WSW 4.0mph /  6.4km/h 6.0mph /  9.7km/h 64% 0.00in /  0mm
08:24 70.1 °F /  21.2 °C 57.4 °F /  14.1 °C 29.72in /  1006.3hPa West 3.0mph /  4.8km/h 8.0mph /  12.9km/h 64% 0.00in /  0mm
08:29 70.4 °F /  21.3 °C 57.2 °F /  14 °C 29.73in /  1006.7hPa West 4.0mph /  6.4km/h 8.0mph /  12.9km/h 63% 0.00in /  0mm
08:34 70.6 °F /  21.4 °C 57.4 °F /  14.1 °C 29.72in /  1006.3hPa WNW 4.0mph /  6.4km/h 8.0mph /  12.9km/h 63% 0.00in /  0mm
08:39 70.8 °F /  21.6 °C 56.7 °F /  13.7 °C 29.73in /  1006.7hPa West 5.0mph /  8km/h 10.0mph /  16.1km/h 61% 0.00in /  0mm
08:44 71.0 °F /  21.7 °C 58.2 °F /  14.6 °C 29.73in /  1006.7hPa West 2.0mph /  3.2km/h 8.0mph /  12.9km/h 64% 0.00in /  0mm
08:49 71.6 °F /  22 °C 57.4 °F /  14.1 °C 29.72in /  1006.3hPa WNW 5.0mph /  8km/h 7.0mph /  11.3km/h 61% 0.00in /  0mm
08:54 71.7 °F /  22.1 °C 56.6 °F /  13.7 °C 29.73in /  1006.7hPa West 3.0mph /  4.8km/h 7.0mph /  11.3km/h 59% 0.00in /  0mm
08:59 71.6 °F /  22 °C 57.0 °F /  13.9 °C 29.73in /  1006.7hPa WSW 3.0mph /  4.8km/h 8.0mph /  12.9km/h 60% 0.00in /  0mm
09:04 72.3 °F /  22.4 °C 57.6 °F /  14.2 °C 29.73in /  1006.7hPa West 3.0mph /  4.8km/h 8.0mph /  12.9km/h 60% 0.00in /  0mm
09:09 72.6 °F /  22.6 °C 57.0 °F /  13.9 °C 29.73in /  1006.7hPa WSW 5.0mph /  8km/h 8.0mph /  12.9km/h 58% 0.00in /  0mm
09:14 72.6 °F /  22.6 °C 56.0 °F /  13.3 °C 29.73in /  1006.7hPa WSW 3.0mph /  4.8km/h 9.0mph /  14.5km/h 56% 0.00in /  0mm
09:19 72.8 °F /  22.7 °C 55.7 °F /  13.2 °C 29.74in /  1007hPa West 6.0mph /  9.7km/h 8.0mph /  12.9km/h 55% 0.00in /  0mm
09:24 73.0 °F /  22.8 °C 56.9 °F /  13.8 °C 29.74in /  1007hPa West 4.0mph /  6.4km/h 9.0mph /  14.5km/h 57% 0.00in /  0mm
09:29 74.0 °F /  23.3 °C 56.8 °F /  13.8 °C 29.74in /  1007hPa West 4.0mph /  6.4km/h 9.0mph /  14.5km/h 55% 0.00in /  0mm
09:34 74.0 °F /  23.3 °C 56.8 °F /  13.8 °C 29.74in /  1007hPa West 3.0mph /  4.8km/h 10.0mph /  16.1km/h 55% 0.00in /  0mm
09:39 74.4 °F /  23.6 °C 57.7 °F /  14.3 °C 29.74in /  1007hPa West 6.0mph /  9.7km/h 10.0mph /  16.1km/h 56% 0.00in /  0mm
09:44 74.8 °F /  23.8 °C 57.0 °F /  13.9 °C 29.73in /  1006.7hPa SW 5.0mph /  8km/h 8.0mph /  12.9km/h 54% 0.00in /  0mm
09:49 74.7 °F /  23.7 °C 58.5 °F /  14.7 °C 29.74in /  1007hPa SW 7.0mph /  11.3km/h 8.0mph /  12.9km/h 57% 0.00in /  0mm
09:54 73.3 °F /  22.9 °C 59.0 °F /  15 °C 29.74in /  1007hPa SW 5.0mph /  8km/h 9.0mph /  14.5km/h 61% 0.00in /  0mm
09:59 72.8 °F /  22.7 °C 59.5 °F /  15.3 °C 29.74in /  1007hPa SW 5.0mph /  8km/h 10.0mph /  16.1km/h 63% 0.00in /  0mm
10:04 72.1 °F /  22.3 °C 60.1 °F /  15.6 °C 29.74in /  1007hPa WSW 5.0mph /  8km/h 10.0mph /  16.1km/h 66% 0.00in /  0mm
10:09 71.9 °F /  22.2 °C 59.1 °F /  15.1 °C 29.74in /  1007hPa WSW 5.0mph /  8km/h 9.0mph /  14.5km/h 64% 0.00in /  0mm
10:14 71.3 °F /  21.8 °C 59.8 °F /  15.4 °C 29.74in /  1007hPa SW 5.0mph /  8km/h 12.0mph /  19.3km/h 67% 0.00in /  0mm
10:19 71.4 °F /  21.9 °C 60.7 °F /  15.9 °C 29.74in /  1007hPa SW 3.0mph /  4.8km/h 9.0mph /  14.5km/h 69% 0.00in /  0mm
10:24 71.0 °F /  21.7 °C 61.1 °F /  16.2 °C 29.74in /  1007hPa WSW 8.0mph /  12.9km/h 11.0mph /  17.7km/h 71% 0.00in /  0mm
10:29 71.6 °F /  22 °C 61.7 °F /  16.5 °C 29.75in /  1007.3hPa SW 5.0mph /  8km/h 10.0mph /  16.1km/h 71% 0.00in /  0mm
10:34 72.3 °F /  22.4 °C 62.4 °F /  16.9 °C 29.75in /  1007.3hPa WSW 7.0mph /  11.3km/h 12.0mph /  19.3km/h 71% 0.00in /  0mm
10:39 72.6 °F /  22.6 °C 62.7 °F /  17.1 °C 29.75in /  1007.3hPa West 6.0mph /  9.7km/h 12.0mph /  19.3km/h 71% 0.00in /  0mm
10:44 72.4 °F /  22.4 °C 64.0 °F /  17.8 °C 29.75in /  1007.3hPa WSW 4.0mph /  6.4km/h 11.0mph /  17.7km/h 75% 0.00in /  0mm
10:49 73.0 °F /  22.8 °C 64.6 °F /  18.1 °C 29.75in /  1007.3hPa WSW 6.0mph /  9.7km/h 13.0mph /  20.9km/h 75% 0.00in /  0mm
10:54 72.6 °F /  22.6 °C 64.6 °F /  18.1 °C 29.75in /  1007.3hPa WSW 7.0mph /  11.3km/h 15.0mph /  24.1km/h 76% 0.00in /  0mm
10:59 72.7 °F /  22.6 °C 64.3 °F /  17.9 °C 29.76in /  1007.7hPa WSW 8.0mph /  12.9km/h 15.0mph /  24.1km/h 75% 0.00in /  0mm
11:04 71.9 °F /  22.2 °C 63.9 °F /  17.7 °C 29.76in /  1007.7hPa WSW 8.0mph /  12.9km/h 19.0mph /  30.6km/h 76% 0.00in /  0mm
11:09 71.9 °F /  22.2 °C 64.3 °F /  17.9 °C 29.76in /  1007.7hPa WSW 7.0mph /  11.3km/h 19.0mph /  30.6km/h 77% 0.00in /  0mm
11:14 71.9 °F /  22.2 °C 63.9 °F /  17.7 °C 29.76in /  1007.7hPa WSW 7.0mph /  11.3km/h 15.0mph /  24.1km/h 76% 0.00in /  0mm
11:19 71.4 °F /  21.9 °C 63.4 °F /  17.4 °C 29.76in /  1007.7hPa SW 9.0mph /  14.5km/h 17.0mph /  27.4km/h 76% 0.00in /  0mm
11:24 70.8 °F /  21.6 °C 63.6 °F /  17.6 °C 29.76in /  1007.7hPa SW 9.0mph /  14.5km/h 17.0mph /  27.4km/h 78% 0.00in /  0mm
11:29 71.5 °F /  21.9 °C 63.5 °F /  17.5 °C 29.76in /  1007.7hPa SSE 6.0mph /  9.7km/h 14.0mph /  22.5km/h 76% 0.00in /  0mm
11:34 72.6 °F /  22.6 °C 64.2 °F /  17.9 °C 29.76in /  1007.7hPa WSW 4.0mph /  6.4km/h 15.0mph /  24.1km/h 75% 0.00in /  0mm
11:39 72.7 °F /  22.6 °C 63.9 °F /  17.7 °C 29.76in /  1007.7hPa WSW 6.0mph /  9.7km/h 13.0mph /  20.9km/h 74% 0.00in /  0mm
11:44 72.8 °F /  22.7 °C 63.6 °F /  17.6 °C 29.76in /  1007.7hPa WSW 9.0mph /  14.5km/h 13.0mph /  20.9km/h 73% 0.00in /  0mm
11:49 72.9 °F /  22.7 °C 63.7 °F /  17.6 °C 29.76in /  1007.7hPa SW 7.0mph /  11.3km/h 13.0mph /  20.9km/h 73% 0.00in /  0mm
11:54 73.0 °F /  22.8 °C 62.6 °F /  17 °C 29.76in /  1007.7hPa SW 6.0mph /  9.7km/h 14.0mph /  22.5km/h 70% 0.00in /  0mm
11:59 72.6 °F /  22.6 °C 63.1 °F /  17.3 °C 29.76in /  1007.7hPa WSW 6.0mph /  9.7km/h 14.0mph /  22.5km/h 72% 0.00in /  0mm
12:04 72.8 °F /  22.7 °C 62.8 °F /  17.1 °C 29.76in /  1007.7hPa West 9.0mph /  14.5km/h 11.0mph /  17.7km/h 71% 0.00in /  0mm
12:09 73.0 °F /  22.8 °C 63.8 °F /  17.7 °C 29.76in /  1007.7hPa West 11.0mph /  17.7km/h 14.0mph /  22.5km/h 73% 0.00in /  0mm
12:14 73.5 °F /  23.1 °C 63.9 °F /  17.7 °C 29.77in /  1008hPa SW 9.0mph /  14.5km/h 14.0mph /  22.5km/h 72% 0.00in /  0mm
12:19 73.3 °F /  22.9 °C 63.7 °F /  17.6 °C 29.77in /  1008hPa WSW 11.0mph /  17.7km/h 12.0mph /  19.3km/h 72% 0.00in /  0mm
12:24 73.4 °F /  23 °C 63.8 °F /  17.7 °C 29.77in /  1008hPa SW 7.0mph /  11.3km/h 17.0mph /  27.4km/h 72% 0.00in /  0mm
12:29 73.4 °F /  23 °C 63.4 °F /  17.4 °C 29.77in /  1008hPa SW 8.0mph /  12.9km/h 17.0mph /  27.4km/h 71% 0.00in /  0mm
12:34 73.2 °F /  22.9 °C 63.2 °F /  17.3 °C 29.77in /  1008hPa SW 9.0mph /  14.5km/h 16.0mph /  25.7km/h 71% 0.00in /  0mm
12:39 73.2 °F /  22.9 °C 64.0 °F /  17.8 °C 29.77in /  1008hPa West 7.0mph /  11.3km/h 13.0mph /  20.9km/h 73% 0.00in /  0mm
12:44 73.6 °F /  23.1 °C 64.0 °F /  17.8 °C 29.77in /  1008hPa SSW 7.0mph /  11.3km/h 14.0mph /  22.5km/h 72% 0.00in /  0mm
12:49 73.4 °F /  23 °C 64.2 °F /  17.9 °C 29.77in /  1008hPa SW 8.0mph /  12.9km/h 17.0mph /  27.4km/h 73% 0.00in /  0mm
12:54 73.4 °F /  23 °C 63.8 °F /  17.7 °C 29.77in /  1008hPa SW 9.0mph /  14.5km/h 17.0mph /  27.4km/h 72% 0.00in /  0mm
12:59 73.5 °F /  23.1 °C 63.9 °F /  17.7 °C 29.77in /  1008hPa SW 10.0mph /  16.1km/h 16.0mph /  25.7km/h 72% 0.00in /  0mm
13:04 73.3 °F /  22.9 °C 62.5 °F /  16.9 °C 29.78in /  1008.4hPa WSW 3.0mph /  4.8km/h 17.0mph /  27.4km/h 69% 0.00in /  0mm
13:09 73.9 °F /  23.3 °C 62.2 °F /  16.8 °C 29.78in /  1008.4hPa WSW 10.0mph /  16.1km/h 14.0mph /  22.5km/h 67% 0.00in /  0mm
13:14 73.4 °F /  23 °C 62.2 °F /  16.8 °C 29.78in /  1008.4hPa West 10.0mph /  16.1km/h 17.0mph /  27.4km/h 68% 0.00in /  0mm
13:19 73.4 °F /  23 °C 62.2 °F /  16.8 °C 29.78in /  1008.4hPa WSW 9.0mph /  14.5km/h 17.0mph /  27.4km/h 68% 0.00in /  0mm
13:24 73.5 °F /  23.1 °C 63.1 °F /  17.3 °C 29.78in /  1008.4hPa WSW 9.0mph /  14.5km/h 17.0mph /  27.4km/h 70% 0.00in /  0mm
13:29 74.0 °F /  23.3 °C 63.2 °F /  17.3 °C 29.78in /  1008.4hPa SW 8.0mph /  12.9km/h 18.0mph /  29km/h 69% 0.00in /  0mm
13:34 73.4 °F /  23 °C 63.0 °F /  17.2 °C 29.78in /  1008.4hPa SW 9.0mph /  14.5km/h 19.0mph /  30.6km/h 70% 0.00in /  0mm
13:39 73.7 °F /  23.2 °C 63.3 °F /  17.4 °C 29.78in /  1008.4hPa SW 9.0mph /  14.5km/h 19.0mph /  30.6km/h 70% 0.00in /  0mm
13:44 73.4 °F /  23 °C 63.0 °F /  17.2 °C 29.78in /  1008.4hPa West 6.0mph /  9.7km/h 16.0mph /  25.7km/h 70% 0.00in /  0mm
13:49 73.9 °F /  23.3 °C 63.1 °F /  17.3 °C 29.78in /  1008.4hPa WSW 9.0mph /  14.5km/h 18.0mph /  29km/h 69% 0.00in /  0mm
13:54 73.4 °F /  23 °C 63.0 °F /  17.2 °C 29.78in /  1008.4hPa West 10.0mph /  16.1km/h 20.0mph /  32.2km/h 70% 0.00in /  0mm
13:59 74.4 °F /  23.6 °C 63.6 °F /  17.6 °C 29.78in /  1008.4hPa WSW 6.0mph /  9.7km/h 15.0mph /  24.1km/h 69% 0.00in /  0mm
14:04 74.4 °F /  23.6 °C 62.7 °F /  17.1 °C 29.79in /  1008.7hPa WSW 15.0mph /  24.1km/h 18.0mph /  29km/h 67% 0.00in /  0mm
14:09 73.6 °F /  23.1 °C 62.4 °F /  16.9 °C 29.79in /  1008.7hPa SW 8.0mph /  12.9km/h 21.0mph /  33.8km/h 68% 0.00in /  0mm
14:14 73.6 °F /  23.1 °C 62.8 °F /  17.1 °C 29.79in /  1008.7hPa SW 12.0mph /  19.3km/h 18.0mph /  29km/h 69% 0.00in /  0mm
14:19 74.1 °F /  23.4 °C 62.9 °F /  17.2 °C 29.79in /  1008.7hPa WSW 9.0mph /  14.5km/h 18.0mph /  29km/h 68% 0.00in /  0mm
14:24 74.3 °F /  23.5 °C 63.5 °F /  17.5 °C 29.79in /  1008.7hPa SW 8.0mph /  12.9km/h 16.0mph /  25.7km/h 69% 0.00in /  0mm
14:29 74.4 °F /  23.6 °C 63.1 °F /  17.3 °C 29.80in /  1009hPa SW 8.0mph /  12.9km/h 16.0mph /  25.7km/h 68% 0.00in /  0mm
14:34 74.0 °F /  23.3 °C 62.3 °F /  16.8 °C 29.80in /  1009hPa West 14.0mph /  22.5km/h 18.0mph /  29km/h 67% 0.00in /  0mm
14:39 74.4 °F /  23.6 °C 63.6 °F /  17.6 °C 29.79in /  1008.7hPa WSW 4.0mph /  6.4km/h 14.0mph /  22.5km/h 69% 0.00in /  0mm
14:44 74.7 °F /  23.7 °C 63.0 °F /  17.2 °C 29.80in /  1009hPa SW 8.0mph /  12.9km/h 18.0mph /  29km/h 67% 0.00in /  0mm
14:49 73.9 °F /  23.3 °C 62.7 °F /  17.1 °C 29.80in /  1009hPa WSW 9.0mph /  14.5km/h 19.0mph /  30.6km/h 68% 0.00in /  0mm
14:54 73.7 °F /  23.2 °C 62.5 °F /  16.9 °C 29.80in /  1009hPa WSW 10.0mph /  16.1km/h 22.0mph /  35.4km/h 68% 0.00in /  0mm
14:59 74.3 °F /  23.5 °C 62.6 °F /  17 °C 29.80in /  1009hPa SW 9.0mph /  14.5km/h 15.0mph /  24.1km/h 67% 0.00in /  0mm
15:04 74.7 °F /  23.7 °C 63.0 °F /  17.2 °C 29.80in /  1009hPa WSW 11.0mph /  17.7km/h 15.0mph /  24.1km/h 67% 0.00in /  0mm
15:09 75.0 °F /  23.9 °C 63.3 °F /  17.4 °C 29.79in /  1008.7hPa SW 6.0mph /  9.7km/h 15.0mph /  24.1km/h 67% 0.00in /  0mm
15:14 75.2 °F /  24 °C 62.2 °F /  16.8 °C 29.79in /  1008.7hPa WSW 7.0mph /  11.3km/h 16.0mph /  25.7km/h 64% 0.00in /  0mm
15:19 74.9 °F /  23.8 °C 62.8 °F /  17.1 °C 29.79in /  1008.7hPa WSW 8.0mph /  12.9km/h 17.0mph /  27.4km/h 66% 0.00in /  0mm
15:24 74.7 °F /  23.7 °C 63.0 °F /  17.2 °C 29.79in /  1008.7hPa SW 9.0mph /  14.5km/h 14.0mph /  22.5km/h 67% 0.00in /  0mm
15:29 74.7 °F /  23.7 °C 62.1 °F /  16.7 °C 29.80in /  1009hPa WNW 7.0mph /  11.3km/h 17.0mph /  27.4km/h 65% 0.00in /  0mm
15:34 73.9 °F /  23.3 °C 61.8 °F /  16.6 °C 29.81in /  1009.4hPa SW 12.0mph /  19.3km/h 22.0mph /  35.4km/h 66% 0.00in /  0mm
15:39 73.7 °F /  23.2 °C 61.6 °F /  16.4 °C 29.81in /  1009.4hPa SW 8.0mph /  12.9km/h 18.0mph /  29km/h 66% 0.00in /  0mm
15:44 73.4 °F /  23 °C 61.8 °F /  16.6 °C 29.81in /  1009.4hPa WSW 10.0mph /  16.1km/h 19.0mph /  30.6km/h 67% 0.00in /  0mm
15:49 73.2 °F /  22.9 °C 61.6 °F /  16.4 °C 29.81in /  1009.4hPa WSW 10.0mph /  16.1km/h 19.0mph /  30.6km/h 67% 0.00in /  0mm
15:54 73.8 °F /  23.2 °C 61.7 °F /  16.5 °C 29.81in /  1009.4hPa WSW 8.0mph /  12.9km/h 18.0mph /  29km/h 66% 0.00in /  0mm
15:59 73.5 °F /  23.1 °C 61.0 °F /  16.1 °C 29.82in /  1009.7hPa WSW 8.0mph /  12.9km/h 19.0mph /  30.6km/h 65% 0.00in /  0mm
16:04 73.3 °F /  22.9 °C 61.7 °F /  16.5 °C 29.82in /  1009.7hPa WSW 10.0mph /  16.1km/h 20.0mph /  32.2km/h 67% 0.00in /  0mm
16:09 73.0 °F /  22.8 °C 60.5 °F /  15.8 °C 29.82in /  1009.7hPa West 6.0mph /  9.7km/h 20.0mph /  32.2km/h 65% 0.00in /  0mm
16:14 73.3 °F /  22.9 °C 61.7 °F /  16.5 °C 29.82in /  1009.7hPa WSW 9.0mph /  14.5km/h 20.0mph /  32.2km/h 67% 0.00in /  0mm
16:19 73.0 °F /  22.8 °C 60.5 °F /  15.8 °C 29.82in /  1009.7hPa SW 13.0mph /  20.9km/h 21.0mph /  33.8km/h 65% 0.00in /  0mm
16:24 72.9 °F /  22.7 °C 60.9 °F /  16.1 °C 29.82in /  1009.7hPa WSW 14.0mph /  22.5km/h 21.0mph /  33.8km/h 66% 0.00in /  0mm
16:29 72.5 °F /  22.5 °C 60.1 °F /  15.6 °C 29.82in /  1009.7hPa West 7.0mph /  11.3km/h 21.0mph /  33.8km/h 65% 0.00in /  0mm
16:34 72.9 °F /  22.7 °C 60.9 °F /  16.1 °C 29.82in /  1009.7hPa West 8.0mph /  12.9km/h 17.0mph /  27.4km/h 66% 0.00in /  0mm
16:39 73.5 °F /  23.1 °C 61.0 °F /  16.1 °C 29.83in /  1010hPa WSW 13.0mph /  20.9km/h 15.0mph /  24.1km/h 65% 0.00in /  0mm
16:44 73.1 °F /  22.8 °C 61.1 °F /  16.2 °C 29.83in /  1010hPa WSW 9.0mph /  14.5km/h 17.0mph /  27.4km/h 66% 0.00in /  0mm
16:49 73.0 °F /  22.8 °C 60.5 °F /  15.8 °C 29.83in /  1010hPa WSW 9.0mph /  14.5km/h 17.0mph /  27.4km/h 65% 0.00in /  0mm
16:54 72.7 °F /  22.6 °C 61.1 °F /  16.2 °C 29.83in /  1010hPa WSW 8.0mph /  12.9km/h 17.0mph /  27.4km/h 67% 0.00in /  0mm
16:59 71.6 °F /  22 °C 59.6 °F /  15.3 °C 29.83in /  1010hPa West 14.0mph /  22.5km/h 23.0mph /  37km/h 66% 0.00in /  0mm
17:04 71.3 °F /  21.8 °C 60.2 °F /  15.7 °C 29.83in /  1010hPa West 9.0mph /  14.5km/h 20.0mph /  32.2km/h 68% 0.00in /  0mm
17:09 70.9 °F /  21.6 °C 60.2 °F /  15.7 °C 29.83in /  1010hPa WSW 2.0mph /  3.2km/h 18.0mph /  29km/h 69% 0.00in /  0mm
17:14 70.8 °F /  21.6 °C 60.1 °F /  15.6 °C 29.83in /  1010hPa WSW 8.0mph /  12.9km/h 18.0mph /  29km/h 69% 0.00in /  0mm
17:19 70.8 °F /  21.6 °C 60.5 °F /  15.8 °C 29.84in /  1010.4hPa WSW 8.0mph /  12.9km/h 18.0mph /  29km/h 70% 0.00in /  0mm
17:24 71.0 °F /  21.7 °C 61.1 °F /  16.2 °C 29.83in /  1010hPa WSW 8.0mph /  12.9km/h 16.0mph /  25.7km/h 71% 0.00in /  0mm
17:29 71.3 °F /  21.8 °C 61.0 °F /  16.1 °C 29.83in /  1010hPa WSW 3.0mph /  4.8km/h 13.0mph /  20.9km/h 70% 0.00in /  0mm
17:34 72.2 °F /  22.3 °C 60.2 °F /  15.7 °C 29.83in /  1010hPa West 3.0mph /  4.8km/h 17.0mph /  27.4km/h 66% 0.00in /  0mm
17:39 72.1 °F /  22.3 °C 61.0 °F /  16.1 °C 29.83in /  1010hPa WSW 6.0mph /  9.7km/h 17.0mph /  27.4km/h 68% 0.00in /  0mm
17:44 72.3 °F /  22.4 °C 59.4 °F /  15.2 °C 29.83in /  1010hPa WSW 7.0mph /  11.3km/h 17.0mph /  27.4km/h 64% 0.00in /  0mm
17:49 71.8 °F /  22.1 °C 59.8 °F /  15.4 °C 29.84in /  1010.4hPa WSW 9.0mph /  14.5km/h 20.0mph /  32.2km/h 66% 0.00in /  0mm
17:54 71.9 °F /  22.2 °C 61.2 °F /  16.2 °C 29.84in /  1010.4hPa WSW 9.0mph /  14.5km/h 20.0mph /  32.2km/h 69% 0.00in /  0mm
17:59 71.6 °F /  22 °C 61.3 °F /  16.3 °C 29.84in /  1010.4hPa WSW 4.0mph /  6.4km/h 17.0mph /  27.4km/h 70% 0.00in /  0mm
18:04 71.5 °F /  21.9 °C 61.6 °F /  16.4 °C 29.84in /  1010.4hPa West 5.0mph /  8km/h 21.0mph /  33.8km/h 71% 0.00in /  0mm
18:09 71.3 °F /  21.8 °C 61.4 °F /  16.3 °C 29.84in /  1010.4hPa WSW 9.0mph /  14.5km/h 21.0mph /  33.8km/h 71% 0.00in /  0mm
18:14 71.3 °F /  21.8 °C 61.4 °F /  16.3 °C 29.85in /  1010.7hPa WSW 8.0mph /  12.9km/h 18.0mph /  29km/h 71% 0.00in /  0mm
18:19 70.8 °F /  21.6 °C 60.9 °F /  16.1 °C 29.85in /  1010.7hPa WSW 9.0mph /  14.5km/h 21.0mph /  33.8km/h 71% 0.00in /  0mm
18:24 70.2 °F /  21.2 °C 60.4 °F /  15.8 °C 29.85in /  1010.7hPa West 9.0mph /  14.5km/h 17.0mph /  27.4km/h 71% 0.00in /  0mm
18:29 69.8 °F /  21 °C 60.8 °F /  16 °C 29.85in /  1010.7hPa SW 9.0mph /  14.5km/h 18.0mph /  29km/h 73% 0.00in /  0mm
18:34 69.6 °F /  20.9 °C 60.9 °F /  16.1 °C 29.85in /  1010.7hPa WSW 6.0mph /  9.7km/h 18.0mph /  29km/h 74% 0.00in /  0mm
18:39 69.7 °F /  20.9 °C 61.0 °F /  16.1 °C 29.85in /  1010.7hPa WSW 8.0mph /  12.9km/h 18.0mph /  29km/h 74% 0.00in /  0mm
18:44 69.9 °F /  21.1 °C 61.6 °F /  16.4 °C 29.85in /  1010.7hPa WSW 7.0mph /  11.3km/h 15.0mph /  24.1km/h 75% 0.00in /  0mm
18:49 69.8 °F /  21 °C 61.5 °F /  16.4 °C 29.85in /  1010.7hPa SW 7.0mph /  11.3km/h 15.0mph /  24.1km/h 75% 0.00in /  0mm
18:54 69.6 °F /  20.9 °C 61.7 °F /  16.5 °C 29.85in /  1010.7hPa WSW 8.0mph /  12.9km/h 16.0mph /  25.7km/h 76% 0.00in /  0mm
18:59 69.5 °F /  20.8 °C 61.2 °F /  16.2 °C 29.85in /  1010.7hPa WSW 7.0mph /  11.3km/h 20.0mph /  32.2km/h 75% 0.00in /  0mm
19:04 69.4 °F /  20.8 °C 61.5 °F /  16.4 °C 29.85in /  1010.7hPa WNW 11.0mph /  17.7km/h 15.0mph /  24.1km/h 76% 0.00in /  0mm
19:09 69.3 °F /  20.7 °C 59.9 °F /  15.5 °C 29.86in /  1011.1hPa West 8.0mph /  12.9km/h 15.0mph /  24.1km/h 72% 0.00in /  0mm
19:14 69.2 °F /  20.7 °C 57.4 °F /  14.1 °C 29.86in /  1011.1hPa West 8.0mph /  12.9km/h 15.0mph /  24.1km/h 66% 0.00in /  0mm
19:19 69.2 °F /  20.7 °C 56.5 °F /  13.6 °C 29.86in /  1011.1hPa West 8.0mph /  12.9km/h 16.0mph /  25.7km/h 64% 0.00in /  0mm
19:24 68.6 °F /  20.3 °C 55.1 °F /  12.8 °C 29.86in /  1011.1hPa West 8.0mph /  12.9km/h 20.0mph /  32.2km/h 62% 0.00in /  0mm
19:29 68.3 °F /  20.2 °C 55.2 °F /  12.9 °C 29.85in /  1010.7hPa West 4.0mph /  6.4km/h 10.0mph /  16.1km/h 63% 0.00in /  0mm
19:34 68.3 °F /  20.2 °C 55.6 °F /  13.1 °C 29.86in /  1011.1hPa NNW 5.0mph /  8km/h 9.0mph /  14.5km/h 64% 0.00in /  0mm
19:39 68.6 °F /  20.3 °C 55.9 °F /  13.3 °C 29.86in /  1011.1hPa WSW 5.0mph /  8km/h 13.0mph /  20.9km/h 64% 0.00in /  0mm
19:44 68.8 °F /  20.4 °C 54.8 °F /  12.7 °C 29.87in /  1011.4hPa WSW 6.0mph /  9.7km/h 14.0mph /  22.5km/h 61% 0.00in /  0mm
19:49 69.0 °F /  20.6 °C 54.1 °F /  12.3 °C 29.87in /  1011.4hPa WSW 6.0mph /  9.7km/h 14.0mph /  22.5km/h 59% 0.00in /  0mm
19:54 68.8 °F /  20.4 °C 54.3 °F /  12.4 °C 29.87in /  1011.4hPa SW 2.0mph /  3.2km/h 10.0mph /  16.1km/h 60% 0.00in /  0mm
19:59 68.7 °F /  20.4 °C 53.8 °F /  12.1 °C 29.87in /  1011.4hPa SW 6.0mph /  9.7km/h 11.0mph /  17.7km/h 59% 0.00in /  0mm
20:04 68.6 °F /  20.3 °C 53.7 °F /  12.1 °C 29.87in /  1011.4hPa SW 6.0mph /  9.7km/h 11.0mph /  17.7km/h 59% 0.00in /  0mm
20:09 68.4 °F /  20.2 °C 54.0 °F /  12.2 °C 29.87in /  1011.4hPa SW 6.0mph /  9.7km/h 11.0mph /  17.7km/h 60% 0.00in /  0mm
20:14 68.2 °F /  20.1 °C 53.8 °F /  12.1 °C 29.87in /  1011.4hPa WSW 3.0mph /  4.8km/h 8.0mph /  12.9km/h 60% 0.00in /  0mm
20:19 67.8 °F /  19.9 °C 53.9 °F /  12.2 °C 29.87in /  1011.4hPa West 4.0mph /  6.4km/h 8.0mph /  12.9km/h 61% 0.00in /  0mm
20:24 67.5 °F /  19.7 °C 53.6 °F /  12 °C 29.87in /  1011.4hPa WSW 5.0mph /  8km/h 10.0mph /  16.1km/h 61% 0.00in /  0mm
20:29 67.3 °F /  19.6 °C 53.4 °F /  11.9 °C 29.87in /  1011.4hPa WSW 5.0mph /  8km/h 9.0mph /  14.5km/h 61% 0.00in /  0mm
20:34 67.1 °F /  19.5 °C 53.2 °F /  11.8 °C 29.88in /  1011.7hPa WSW 4.0mph /  6.4km/h 9.0mph /  14.5km/h 61% 0.00in /  0mm
20:39 66.9 °F /  19.4 °C 53.5 °F /  11.9 °C 29.88in /  1011.7hPa SW 4.0mph /  6.4km/h 8.0mph /  12.9km/h 62% 0.00in /  0mm
20:44 66.7 °F /  19.3 °C 53.7 °F /  12.1 °C 29.87in /  1011.4hPa SW 3.0mph /  4.8km/h 8.0mph /  12.9km/h 63% 0.00in /  0mm
20:49 66.2 °F /  19 °C 53.7 °F /  12.1 °C 29.87in /  1011.4hPa SW 2.0mph /  3.2km/h 5.0mph /  8km/h 64% 0.00in /  0mm
20:54 66.0 °F /  18.9 °C 53.5 °F /  11.9 °C 29.88in /  1011.7hPa SW 2.0mph /  3.2km/h 6.0mph /  9.7km/h 64% 0.00in /  0mm
20:59 65.8 °F /  18.8 °C 54.1 °F /  12.3 °C 29.88in /  1011.7hPa Calm   4.0mph /  6.4km/h 66% 0.00in /  0mm
21:04 65.5 °F /  18.6 °C 53.8 °F /  12.1 °C 29.88in /  1011.7hPa SW 4.0mph /  6.4km/h 4.0mph /  6.4km/h 66% 0.00in /  0mm
21:09 65.7 °F /  18.7 °C 54.4 °F /  12.4 °C 29.88in /  1011.7hPa SW 3.0mph /  4.8km/h 5.0mph /  8km/h 67% 0.00in /  0mm
21:14 65.5 °F /  18.6 °C 54.7 °F /  12.6 °C 29.88in /  1011.7hPa SSW 2.0mph /  3.2km/h 5.0mph /  8km/h 68% 0.00in /  0mm
21:19 65.3 °F /  18.5 °C 54.9 °F /  12.7 °C 29.89in /  1012.1hPa SSW 2.0mph /  3.2km/h 3.0mph /  4.8km/h 69% 0.00in /  0mm
21:24 65.3 °F /  18.5 °C 54.9 °F /  12.7 °C 29.89in /  1012.1hPa SW 2.0mph /  3.2km/h 6.0mph /  9.7km/h 69% 0.00in /  0mm
21:29 65.2 °F /  18.4 °C 55.2 °F /  12.9 °C 29.89in /  1012.1hPa SW 2.0mph /  3.2km/h 6.0mph /  9.7km/h 70% 0.00in /  0mm
21:34 65.1 °F /  18.4 °C 55.8 °F /  13.2 °C 29.89in /  1012.1hPa SW 2.0mph /  3.2km/h 5.0mph /  8km/h 72% 0.00in /  0mm
21:39 65.1 °F /  18.4 °C 56.2 °F /  13.4 °C 29.89in /  1012.1hPa SW 2.0mph /  3.2km/h 5.0mph /  8km/h 73% 0.00in /  0mm
21:44 65.1 °F /  18.4 °C 56.2 °F /  13.4 °C 29.90in /  1012.4hPa SW 3.0mph /  4.8km/h 6.0mph /  9.7km/h 73% 0.00in /  0mm
21:49 65.0 °F /  18.3 °C 56.1 °F /  13.4 °C 29.90in /  1012.4hPa SW 3.0mph /  4.8km/h 6.0mph /  9.7km/h 73% 0.00in /  0mm
21:54 65.0 °F /  18.3 °C 56.1 °F /  13.4 °C 29.90in /  1012.4hPa SW 3.0mph /  4.8km/h 6.0mph /  9.7km/h 73% 0.00in /  0mm
21:59 65.0 °F /  18.3 °C 56.5 °F /  13.6 °C 29.90in /  1012.4hPa SW 3.0mph /  4.8km/h 7.0mph /  11.3km/h 74% 0.00in /  0mm
22:04 64.7 °F /  18.2 °C 56.2 °F /  13.4 °C 29.91in /  1012.8hPa WSW 1.0mph /  1.6km/h 4.0mph /  6.4km/h 74% 0.00in /  0mm
22:09 64.8 °F /  18.2 °C 56.7 °F /  13.7 °C 29.91in /  1012.8hPa SW 3.0mph /  4.8km/h 6.0mph /  9.7km/h 75% 0.00in /  0mm
22:14 65.1 °F /  18.4 °C 56.6 °F /  13.7 °C 29.91in /  1012.8hPa WSW 3.0mph /  4.8km/h 5.0mph /  8km/h 74% 0.00in /  0mm
22:19 65.2 °F /  18.4 °C 56.7 °F /  13.7 °C 29.91in /  1012.8hPa WSW 1.0mph /  1.6km/h 6.0mph /  9.7km/h 74% 0.00in /  0mm
22:24 65.4 °F /  18.6 °C 56.9 °F /  13.8 °C 29.91in /  1012.8hPa SW 2.0mph /  3.2km/h 7.0mph /  11.3km/h 74% 0.00in /  0mm
22:29 65.6 °F /  18.7 °C 57.1 °F /  13.9 °C 29.91in /  1012.8hPa SW 3.0mph /  4.8km/h 7.0mph /  11.3km/h 74% 0.00in /  0mm
22:34 65.7 °F /  18.7 °C 57.2 °F /  14 °C 29.91in /  1012.8hPa SW 3.0mph /  4.8km/h 7.0mph /  11.3km/h 74% 0.00in /  0mm
22:39 65.7 °F /  18.7 °C 57.6 °F /  14.2 °C 29.91in /  1012.8hPa SW 3.0mph /  4.8km/h 6.0mph /  9.7km/h 75% 0.00in /  0mm
22:44 65.9 °F /  18.8 °C 58.1 °F /  14.5 °C 29.91in /  1012.8hPa SW 7.0mph /  11.3km/h 9.0mph /  14.5km/h 76% 0.00in /  0mm
22:49 66.0 °F /  18.9 °C 58.2 °F /  14.6 °C 29.91in /  1012.8hPa WSW 4.0mph /  6.4km/h 8.0mph /  12.9km/h 76% 0.00in /  0mm
22:54 66.0 °F /  18.9 °C 58.6 °F /  14.8 °C 29.91in /  1012.8hPa SW 3.0mph /  4.8km/h 8.0mph /  12.9km/h 77% 0.00in /  0mm
22:59 66.0 °F /  18.9 °C 58.6 °F /  14.8 °C 29.91in /  1012.8hPa SW 3.0mph /  4.8km/h 11.0mph /  17.7km/h 77% 0.00in /  0mm
23:04 66.0 °F /  18.9 °C 56.7 °F /  13.7 °C 29.91in /  1012.8hPa SW 5.0mph /  8km/h 15.0mph /  24.1km/h 72% 0.00in /  0mm
23:09 66.1 °F /  18.9 °C 56.4 °F /  13.6 °C 29.91in /  1012.8hPa WSW 6.0mph /  9.7km/h 15.0mph /  24.1km/h 71% 0.00in /  0mm
23:14 65.9 °F /  18.8 °C 56.6 °F /  13.7 °C 29.91in /  1012.8hPa WSW 2.0mph /  3.2km/h 6.0mph /  9.7km/h 72% 0.00in /  0mm
23:19 65.7 °F /  18.7 °C 56.8 °F /  13.8 °C 29.92in /  1013.1hPa South 6.0mph /  9.7km/h 7.0mph /  11.3km/h 73% 0.00in /  0mm
23:24 65.5 °F /  18.6 °C 56.2 °F /  13.4 °C 29.91in /  1012.8hPa SW 3.0mph /  4.8km/h 9.0mph /  14.5km/h 72% 0.00in /  0mm
23:29 65.3 °F /  18.5 °C 56.4 °F /  13.6 °C 29.92in /  1013.1hPa SW 1.0mph /  1.6km/h 5.0mph /  8km/h 73% 0.00in /  0mm
23:34 65.3 °F /  18.5 °C 56.4 °F /  13.6 °C 29.92in /  1013.1hPa WSW 3.0mph /  4.8km/h 6.0mph /  9.7km/h 73% 0.00in /  0mm
23:39 65.4 °F /  18.6 °C 56.5 °F /  13.6 °C 29.92in /  1013.1hPa SW 2.0mph /  3.2km/h 7.0mph /  11.3km/h 73% 0.00in /  0mm
23:44 65.3 °F /  18.5 °C 56.8 °F /  13.8 °C 29.92in /  1013.1hPa SW 1.0mph /  1.6km/h 3.0mph /  4.8km/h 74% 0.00in /  0mm
23:49 65.3 °F /  18.5 °C 56.8 °F /  13.8 °C 29.91in /  1012.8hPa SW 1.0mph /  1.6km/h 3.0mph /  4.8km/h 74% 0.00in /  0mm
23:54 65.3 °F /  18.5 °C 56.4 °F /  13.6 °C 29.91in /  1012.8hPa SW 1.0mph /  1.6km/h 3.0mph /  4.8km/h 73% 0.00in /  0mm
23:59 65.2 °F /  18.4 °C 56.3 °F /  13.5 °C 29.91in /  1012.8hPa SW 1.0mph /  1.6km/h 2.0mph /  3.2km/h 73% 0.00in /  0mm
Buffalo, New York, USA
Compliments of Weather Underground - 2.5 mb